Wetterdaten: aktuell Mittwoch, 04.08.2021 20:59
Datum Zeit Temp. Nord Temp. Sd Luftfeuchte Luftdruck Regen Wind Richtung Richtung Sonnenschein Helligkeit Taupunkt Windchill
04.08.2021 20:59 14,5 C 13,7 C 88 % 1010,9 hPa 0,0 l/m 4,9 km/h (1 Bft) W22.5 260 0 min 243 lux 11,7 C 13,7 C
04.08.2021 19:59 15,2 C 14,3 C 87 % 1010,7 hPa 0,0 l/m 3,7 km/h (1 Bft) W 260 0 min 1,44 klux 12,2 C 14,3 C
04.08.2021 18:59 15,9 C 15,0 C 87 % 1010,5 hPa 0,0 l/m 2,7 km/h (1 Bft) S-SO 150 0 min 7,12 klux 12,9 C 15,0 C
04.08.2021 17:59 16,2 C 15,4 C 86 % 1010,4 hPa 0,7 l/m 5,3 km/h (1 Bft) O-NO 70 0 min 10,0 klux 13,1 C 15,4 C
04.08.2021 16:59 17,4 C 16,5 C 80 % 1010,1 hPa 0,0 l/m 10,1 km/h (2 Bft) S45 175 0 min 7,24 klux 13,0 C 14,7 C
04.08.2021 15:59 18,9 C 18,0 C 75 % 1009,7 hPa 0,0 l/m 11,0 km/h (2 Bft) S-SO67.5 150 0 min 18,9 klux 13,5 C 16,1 C
04.08.2021 14:59 19,8 C 18,9 C 71 % 1010,5 hPa 0,0 l/m 13,8 km/h (3 Bft) O-SO67.5 105 0 min 33,5 klux 13,5 C 16,2 C
04.08.2021 13:59 18,9 C 18,4 C 73 % 1010,6 hPa 0,0 l/m 11,0 km/h (2 Bft) SO45 140 0 min 40,4 klux 13,5 C 16,5 C
04.08.2021 12:59 18,1 C 17,9 C 72 % 1010,8 hPa 0,0 l/m 12,3 km/h (3 Bft) O67.5 95 15 min 42,0 klux 12,8 C 15,5 C
04.08.2021 11:59 16,8 C 16,5 C 79 % 1011,2 hPa 0,0 l/m 5,1 km/h (1 Bft) SO67.5 135 12 min 29,3 klux 12,8 C 16,5 C
04.08.2021 10:59 16,0 C 15,4 C 83 % 1011,5 hPa 0,0 l/m 10,6 km/h (2 Bft) NO22.5 45 3 min 64,4 klux 12,5 C 13,3 C
04.08.2021 09:59 16,0 C 14,8 C 83 % 1012,8 hPa 0,0 l/m 8,3 km/h (2 Bft) O-NO45 70 6 min 16,3 klux 11,9 C 13,7 C
04.08.2021 08:59 16,9 C 13,7 C 87 % 1013,1 hPa 0,0 l/m 8,1 km/h (2 Bft) S-SW45 195 30 min 35,1 klux 11,6 C 12,7 C
04.08.2021 07:59 13,4 C 11,7 C 91 % 1012,6 hPa 0,0 l/m 0,3 km/h (0 Bft) W 280 9 min 36,2 klux 10,3 C 11,7 C
04.08.2021 06:59 11,9 C 11,3 C 91 % 1012,7 hPa 0,0 l/m 4,6 km/h (1 Bft) S-SW22.5 200 0 min 2,92 klux 9,9 C 11,3 C
04.08.2021 05:59 11,8 C 11,3 C 91 % 1012,7 hPa 0,0 l/m 8,1 km/h (2 Bft) SW22.5 220 0 min 139 lux 9,9 C 10,2 C
04.08.2021 04:59 12,0 C 11,5 C 90 % 1012,7 hPa 0,0 l/m 11,1 km/h (2 Bft) SW22.5 225 0 min 0 lux 9,9 C 8,7 C
04.08.2021 03:59 12,2 C 11,7 C 89 % 1013,7 hPa 0,0 l/m 3,4 km/h (1 Bft) S-SO 155 0 min 0 lux 9,9 C 11,7 C
04.08.2021 02:59 12,2 C 11,7 C 89 % 1013,7 hPa 0,0 l/m 10,4 km/h (2 Bft) SW22.5 225 0 min 0 lux 9,9 C 9,3 C
04.08.2021 01:59 12,4 C 11,9 C 89 % 1013,6 hPa 0,0 l/m 10,9 km/h (2 Bft) S-SW22.5 195 0 min 0 lux 10,1 C 9,2 C
04.08.2021 00:59 12,6 C 12,1 C 90 % 1013,6 hPa 0,0 l/m 6,7 km/h (2 Bft) W-SW45 240 0 min 0 lux 10,5 C 11,9 C
03.08.2021 23:59 13,1 C 12,6 C 91 % 1013,4 hPa 0,0 l/m 11,5 km/h (2 Bft) S-SW45 200 0 min 0 lux 11,2 C 9,7 C
03.08.2021 22:59 13,4 C 12,9 C 91 % 1013,3 hPa 0,0 l/m 14,1 km/h (3 Bft) S-SW45 210 0 min 0 lux 11,5 C 9,0 C
03.08.2021 21:59 13,8 C 13,3 C 90 % 1013,2 hPa 0,4 l/m 14,2 km/h (3 Bft) S45 185 0 min 0 lux 11,7 C 9,4 C
03.08.2021 21:01 14,1 C 13,7 C 88 % 1013,1 hPa 0,0 l/m 14,3 km/h (3 Bft) S45 190 0 min 155 lux 11,7 C 9,9 C
_ Min-Zeit 06:08 06:02 14:35 15:14 - 03:23 - - - - 06:02 02:17
Minimum _ 11,7 C 11,2 C 69 % 1009,5 hPa - 0,0 km/h (0 Bft) - - - - 9,8 C 6,0 C
_ Max-Zeit 14:47 14:50 22:02 06:56 21:29 22:26 - - 07:50 12:35 15:02 14:44
Maximum _ 19,8 C 18,9 C 91 % 1013,8 hPa 0,4 l/m 24,5 km/h
S-SW (4 Bft)
- - 3 min 74,0 klux 13,6 C 18,8 C
Durchschnitt _ 14,9 C 14,2 C 85 % 1012,1 hPa #1,1 l/m 8,4 km/h (2 Bft) S-SW - #1:15 h 14,0 klux 11,6 C 12,7 C